createdAt,value
2019-04-22T00:00:59.435Z,95.30
2019-04-22T00:03:42.771Z,94.70
2019-04-22T00:06:30.941Z,94.60
2019-04-22T00:09:11.183Z,94.60
2019-04-22T00:11:51.354Z,94.90
2019-04-22T00:14:15.069Z,95.00
2019-04-22T00:16:51.928Z,95.30
2019-04-22T00:19:37.243Z,95.20
2019-04-22T00:22:09.254Z,95.70
2019-04-22T00:24:39.071Z,95.40
2019-04-22T00:27:13.835Z,95.40
2019-04-22T00:30:00.314Z,95.60
2019-04-22T00:32:36.310Z,95.60
2019-04-22T00:35:11.538Z,95.50
2019-04-22T00:37:53.285Z,95.80
2019-04-22T00:40:30.973Z,95.90
2019-04-22T00:42:58.000Z,96.20
2019-04-22T00:45:38.984Z,96.00
2019-04-22T00:48:17.806Z,96.10
2019-04-22T00:50:46.341Z,96.40
2019-04-22T00:53:23.875Z,96.60
2019-04-22T00:58:48.391Z,96.70
2019-04-22T01:04:04.232Z,97.10
2019-04-22T01:06:35.344Z,97.70
2019-04-22T01:09:10.505Z,97.80
2019-04-22T01:11:37.857Z,97.60
2019-04-22T01:14:16.157Z,97.30
2019-04-22T01:19:34.758Z,98.00
2019-04-22T01:22:02.868Z,98.40
2019-04-22T01:24:32.405Z,98.30
2019-04-22T01:27:05.099Z,98.20
2019-04-22T01:29:34.950Z,98.40
2019-04-22T01:31:58.201Z,97.90
2019-04-22T01:34:48.573Z,98.10
2019-04-22T01:37:26.284Z,97.80
2019-04-22T01:40:14.862Z,98.10
2019-04-22T01:42:53.658Z,98.20
2019-04-22T01:45:19.334Z,97.70
2019-04-22T01:47:49.021Z,98.40
2019-04-22T01:50:27.224Z,97.80
2019-04-22T01:53:11.786Z,98.30
2019-04-22T01:55:41.809Z,98.20
2019-04-22T01:58:08.983Z,98.10
2019-04-22T02:00:51.094Z,98.20
2019-04-22T02:03:17.787Z,98.10
2019-04-22T02:05:53.623Z,97.80
2019-04-22T02:08:40.564Z,98.10
2019-04-22T02:11:03.987Z,98.20
2019-04-22T02:13:36.714Z,98.20
2019-04-22T02:16:15.250Z,98.40
2019-04-22T02:18:45.206Z,98.20
2019-04-22T02:21:24.846Z,98.30
2019-04-22T02:23:53.939Z,98.70
2019-04-22T02:26:35.464Z,98.70
2019-04-22T02:29:01.927Z,98.00
2019-04-22T02:31:45.289Z,99.00
2019-04-22T02:36:54.887Z,98.60
2019-04-22T02:39:29.840Z,98.40
2019-04-22T02:42:09.773Z,98.40
2019-04-22T02:44:40.185Z,98.30
2019-04-22T02:47:20.792Z,98.70
2019-04-22T02:49:55.509Z,98.60
2019-04-22T02:52:35.276Z,99.40
2019-04-22T02:55:23.429Z,99.60
2019-04-22T02:57:49.102Z,99.00
2019-04-22T03:05:56.632Z,99.40
2019-04-22T03:08:23.978Z,99.50
2019-04-22T03:13:51.101Z,99.90
2019-04-22T03:16:17.880Z,99.90
2019-04-22T03:18:57.119Z,99.90
2019-04-22T03:24:21.395Z,99.90
2019-04-22T03:26:59.145Z,99.90
2019-04-22T03:38:20.247Z,99.80
2019-04-22T03:40:46.946Z,99.90
2019-04-22T03:43:42.514Z,99.80
2019-04-22T03:45:45.615Z,99.80
2019-04-22T03:48:38.399Z,99.60
2019-04-22T03:51:22.694Z,99.90
2019-04-22T03:53:54.664Z,99.90
2019-04-22T03:57:18.193Z,99.90
2019-04-22T03:59:29.358Z,99.90
2019-04-22T04:01:56.941Z,99.70
2019-04-22T04:04:25.172Z,99.90
2019-04-22T04:12:25.029Z,99.70
2019-04-22T04:15:14.023Z,99.50
2019-04-22T04:17:50.136Z,99.20
2019-04-22T04:23:10.460Z,98.80
2019-04-22T04:25:42.832Z,99.10
2019-04-22T04:28:29.484Z,98.90
2019-04-22T04:31:22.472Z,99.10
2019-04-22T04:33:38.140Z,98.00
2019-04-22T04:36:07.950Z,98.50
2019-04-22T04:44:13.939Z,98.30
2019-04-22T04:46:49.668Z,98.00
2019-04-22T04:49:23.876Z,97.60
2019-04-22T04:54:44.524Z,96.70
2019-04-22T04:57:30.696Z,95.90
2019-04-22T05:00:26.207Z,95.30
2019-04-22T05:02:40.903Z,95.10
2019-04-22T05:13:01.837Z,94.70
2019-04-22T05:16:06.777Z,94.20
2019-04-22T05:18:32.445Z,93.30
2019-04-22T05:21:11.148Z,93.00
2019-04-22T05:23:37.497Z,92.10
2019-04-22T05:26:26.104Z,92.00
2019-04-22T05:28:55.486Z,91.00
2019-04-22T05:31:37.475Z,90.90
2019-04-22T05:39:28.434Z,89.10
2019-04-22T05:42:08.551Z,90.00
2019-04-22T05:44:49.650Z,88.10
2019-04-22T05:47:25.646Z,85.80
2019-04-22T05:50:07.951Z,85.10
2019-04-22T05:52:51.518Z,83.20
2019-04-22T05:55:38.614Z,83.40
2019-04-22T05:58:20.739Z,81.10
2019-04-22T06:01:21.831Z,82.10
2019-04-22T06:03:46.548Z,82.00
2019-04-22T06:08:57.777Z,78.00
2019-04-22T06:11:29.426Z,75.90
2019-04-22T06:14:22.546Z,76.70
2019-04-22T06:17:08.616Z,75.50
2019-04-22T06:19:44.836Z,75.80
2019-04-22T06:22:33.809Z,76.70
2019-04-22T06:27:41.659Z,72.90
2019-04-22T06:30:25.783Z,72.90
2019-04-22T06:33:02.767Z,70.00
2019-04-22T06:35:45.816Z,68.50
2019-04-22T06:38:30.512Z,67.70
2019-04-22T06:41:04.274Z,69.50
2019-04-22T06:43:52.964Z,67.80
2019-04-22T06:46:22.420Z,69.20
2019-04-22T06:49:04.694Z,67.70
2019-04-22T06:51:37.552Z,67.10
2019-04-22T06:54:22.285Z,66.20
2019-04-22T06:56:57.689Z,64.90
2019-04-22T06:59:33.035Z,66.60
2019-04-22T07:02:14.905Z,64.40
2019-04-22T07:04:49.412Z,65.90
2019-04-22T07:07:24.000Z,67.70
2019-04-22T07:10:26.372Z,64.60
2019-04-22T07:12:54.261Z,64.40
2019-04-22T07:18:26.167Z,63.10
2019-04-22T07:20:57.864Z,63.70
2019-04-22T07:23:33.398Z,64.80
2019-04-22T07:26:07.630Z,63.30
2019-04-22T07:28:51.976Z,64.20
2019-04-22T07:31:36.895Z,62.30
2019-04-22T07:34:19.442Z,62.50
2019-04-22T07:36:59.032Z,62.60
2019-04-22T07:39:37.951Z,62.60
2019-04-22T07:42:19.014Z,63.50
2019-04-22T07:47:49.430Z,62.60
2019-04-22T07:50:31.211Z,60.80
2019-04-22T07:52:45.996Z,60.40
2019-04-22T07:55:24.432Z,61.10
2019-04-22T07:57:59.358Z,60.30
2019-04-22T08:00:31.141Z,63.00
2019-04-22T08:08:24.876Z,60.90
2019-04-22T08:10:52.268Z,57.80
2019-04-22T08:13:24.812Z,58.20
2019-04-22T08:15:58.774Z,57.20
2019-04-22T08:18:34.385Z,59.80
2019-04-22T08:21:04.259Z,58.60
2019-04-22T08:23:46.926Z,56.50
2019-04-22T08:26:16.767Z,57.70
2019-04-22T08:28:52.037Z,58.00
2019-04-22T08:31:28.642Z,56.10
2019-04-22T08:34:01.610Z,55.90
2019-04-22T08:36:31.520Z,56.80
2019-04-22T08:39:08.202Z,55.20
2019-04-22T08:46:48.898Z,54.90
2019-04-22T08:49:30.659Z,55.00
2019-04-22T08:52:01.330Z,54.10
2019-04-22T08:54:36.213Z,53.70
2019-04-22T08:59:43.666Z,55.10
2019-04-22T09:02:20.501Z,53.80
2019-04-22T09:04:48.042Z,53.80
2019-04-22T09:09:57.765Z,53.70
2019-04-22T09:14:56.153Z,51.30
2019-04-22T09:17:40.265Z,51.30
2019-04-22T09:20:15.080Z,51.60
2019-04-22T09:22:48.677Z,51.10
2019-04-22T09:25:26.985Z,51.40
2019-04-22T09:27:57.192Z,50.50
2019-04-22T09:30:44.839Z,50.00
2019-04-22T09:35:48.531Z,50.10
2019-04-22T09:38:35.854Z,50.00
2019-04-22T09:41:06.554Z,48.70
2019-04-22T09:46:02.150Z,48.70
2019-04-22T09:48:37.846Z,48.00
2019-04-22T09:51:05.869Z,47.50
2019-04-22T09:53:47.280Z,46.00
2019-04-22T09:56:20.311Z,46.60
2019-04-22T09:58:49.198Z,47.20
2019-04-22T10:01:38.430Z,47.00
2019-04-22T10:11:37.659Z,44.50
2019-04-22T10:14:12.500Z,44.30
2019-04-22T10:17:02.926Z,44.10
2019-04-22T10:19:23.254Z,43.00
2019-04-22T10:22:16.681Z,46.00
2019-04-22T10:24:29.678Z,44.80
2019-04-22T10:27:01.733Z,47.00
2019-04-22T10:29:41.573Z,44.10
2019-04-22T10:32:06.848Z,42.70
2019-04-22T10:34:31.251Z,43.50
2019-04-22T10:36:59.987Z,43.20
2019-04-22T10:39:41.195Z,43.10
2019-04-22T10:42:05.138Z,44.00
2019-04-22T10:44:37.386Z,42.50
2019-04-22T10:47:09.821Z,43.10
2019-04-22T10:49:42.529Z,42.80
2019-04-22T14:32:31.615Z,38.20
2019-04-22T14:35:03.097Z,40.30
2019-04-22T14:37:36.427Z,42.80
2019-04-22T14:40:12.290Z,41.80
2019-04-22T14:43:05.949Z,41.00
2019-04-22T14:46:04.030Z,41.10
2019-04-22T14:48:36.291Z,41.90
2019-04-22T14:51:22.337Z,41.80
2019-04-22T14:54:01.389Z,42.00
2019-04-22T14:56:22.420Z,42.40
2019-04-22T14:59:00.781Z,42.60
2019-04-22T15:01:47.516Z,42.90
2019-04-22T15:04:19.392Z,43.40
2019-04-22T15:06:57.042Z,43.50
2019-04-22T15:09:41.983Z,44.00
2019-04-22T15:12:31.029Z,43.50
2019-04-22T15:15:09.210Z,44.20
2019-04-22T15:17:56.728Z,44.60
2019-04-22T15:21:11.067Z,44.80
2019-04-22T15:23:46.678Z,45.10
2019-04-22T15:26:22.451Z,45.80
2019-04-22T15:28:57.714Z,45.40
2019-04-22T15:31:31.371Z,45.00
2019-04-22T15:34:04.588Z,44.60
2019-04-22T15:36:37.888Z,45.10
2019-04-22T15:39:11.336Z,46.20
2019-04-22T15:41:55.587Z,46.00
2019-04-22T15:44:19.535Z,45.70
2019-04-22T15:46:53.184Z,46.10
2019-04-22T15:49:25.644Z,46.40
2019-04-22T15:52:00.789Z,46.80
2019-04-22T15:54:32.015Z,47.80
2019-04-22T15:57:04.759Z,48.00
2019-04-22T15:59:53.782Z,48.60
2019-04-22T16:02:12.073Z,49.10
2019-04-22T16:04:44.640Z,49.10
2019-04-22T16:07:20.437Z,49.60
2019-04-22T16:09:52.010Z,49.80
2019-04-22T16:12:30.765Z,50.20
2019-04-22T16:14:59.723Z,50.50
2019-04-22T16:17:34.675Z,51.00
2019-04-22T16:20:11.041Z,51.10
2019-04-22T16:23:22.405Z,51.40
2019-04-22T16:26:01.052Z,52.00
2019-04-22T16:28:35.241Z,53.10
2019-04-22T16:31:19.713Z,53.20
2019-04-22T16:33:54.351Z,53.50
2019-04-22T16:36:27.021Z,53.80
2019-04-22T16:39:00.548Z,53.90
2019-04-22T16:41:33.031Z,54.10
2019-04-22T16:44:06.909Z,53.80
2019-04-22T16:46:39.699Z,54.20
2019-04-22T16:49:13.793Z,54.70
2019-04-22T16:51:52.042Z,55.00
2019-04-22T16:54:27.873Z,55.40
2019-04-22T16:57:01.879Z,55.70
2019-04-22T16:59:40.320Z,56.20
2019-04-22T17:02:28.647Z,56.50
2019-04-22T17:05:19.766Z,56.90
2019-04-22T17:07:52.402Z,57.50
2019-04-22T17:10:25.935Z,57.60
2019-04-22T17:13:05.408Z,57.90
2019-04-22T17:15:33.384Z,57.90
2019-04-22T17:18:07.412Z,58.00
2019-04-22T17:20:40.685Z,58.00
2019-04-22T17:23:13.945Z,58.30
2019-04-22T17:25:46.597Z,58.50
2019-04-22T17:28:19.346Z,59.00
2019-04-22T17:30:52.130Z,59.10
2019-04-22T17:33:26.522Z,59.50
2019-04-22T17:36:03.355Z,59.70
2019-04-22T17:38:45.392Z,59.90
2019-04-22T17:41:24.322Z,60.20
2019-04-22T17:44:21.760Z,60.70
2019-04-22T17:46:49.709Z,60.70
2019-04-22T17:49:37.396Z,61.10
2019-04-22T17:52:21.852Z,61.70
2019-04-22T17:55:04.528Z,62.30
2019-04-22T17:57:29.516Z,62.50
2019-04-22T17:59:58.769Z,62.70
2019-04-22T18:02:37.675Z,62.70
2019-04-22T18:04:57.484Z,63.20
2019-04-22T18:08:07.249Z,63.50
2019-04-22T18:13:07.339Z,64.80
2019-04-22T18:15:29.414Z,64.80
2019-04-22T18:18:18.661Z,65.30
2019-04-22T18:20:45.838Z,65.60
2019-04-22T18:23:20.089Z,65.90
2019-04-22T18:26:05.724Z,66.30
2019-04-22T18:28:50.244Z,67.00
2019-04-22T18:31:15.758Z,67.30
2019-04-22T18:33:50.321Z,67.20
2019-04-22T18:36:30.636Z,67.70
2019-04-22T18:39:20.434Z,68.10
2019-04-22T18:41:44.018Z,68.20
2019-04-22T18:44:27.245Z,68.60
2019-04-22T18:47:01.013Z,69.30
2019-04-22T18:49:39.138Z,69.40
2019-04-22T18:52:53.290Z,69.90
2019-04-22T18:55:51.619Z,70.10
2019-04-22T18:58:27.509Z,70.20
2019-04-22T19:00:54.760Z,71.40
2019-04-22T19:03:49.736Z,71.60
2019-04-22T19:09:48.334Z,72.40
2019-04-22T19:13:00.655Z,72.60
2019-04-22T19:15:21.077Z,72.60
2019-04-22T19:18:13.517Z,73.60
2019-04-22T19:21:02.700Z,73.60
2019-04-22T19:24:01.538Z,74.40
2019-04-22T19:27:10.958Z,74.60
2019-04-22T19:30:23.955Z,75.80
2019-04-22T19:33:13.836Z,76.60
2019-04-22T19:35:49.126Z,77.00
2019-04-22T19:38:19.147Z,77.10
2019-04-22T19:41:13.448Z,77.70
2019-04-22T19:43:47.396Z,78.90
2019-04-22T19:46:20.935Z,79.10
2019-04-22T19:49:03.817Z,79.20
2019-04-22T19:51:45.912Z,78.90
2019-04-22T19:54:12.813Z,79.30
2019-04-22T19:56:38.799Z,80.20
2019-04-22T19:59:23.563Z,80.60
2019-04-22T20:02:42.488Z,81.10
2019-04-22T20:05:39.586Z,82.90
2019-04-22T20:08:14.494Z,84.30
2019-04-22T20:10:52.275Z,85.20
2019-04-22T20:13:37.097Z,85.70
2019-04-22T20:16:01.126Z,86.10
2019-04-22T20:18:52.280Z,86.70
2019-04-22T20:21:31.192Z,87.20
2019-04-22T20:23:51.769Z,87.60
2019-04-22T20:26:40.790Z,88.00
2019-04-22T20:29:18.803Z,88.70
2019-04-22T20:31:54.405Z,88.80
2019-04-22T20:34:33.827Z,89.30
2019-04-22T20:39:49.047Z,89.90
2019-04-22T20:42:36.925Z,90.00
2019-04-22T20:45:05.329Z,90.20
2019-04-22T20:47:35.747Z,90.50
2019-04-22T20:50:21.424Z,90.50
2019-04-22T20:53:07.323Z,90.60
2019-04-22T20:55:42.210Z,90.80
2019-04-22T20:58:15.324Z,90.90
2019-04-22T21:00:46.271Z,91.00
2019-04-22T21:03:26.667Z,91.10
2019-04-22T21:06:19.177Z,91.20
2019-04-22T21:08:54.651Z,91.40
2019-04-22T21:11:29.991Z,91.50
2019-04-22T21:14:05.877Z,91.40
2019-04-22T21:16:43.098Z,91.50
2019-04-22T21:19:27.739Z,91.70
2019-04-22T21:21:58.103Z,91.70
2019-04-22T21:24:31.187Z,91.70
2019-04-22T21:27:18.309Z,91.70
2019-04-22T21:29:43.347Z,91.70
2019-04-22T21:32:28.214Z,91.70
2019-04-22T21:35:21.504Z,91.60
2019-04-22T21:37:38.251Z,91.60
2019-04-22T21:40:10.212Z,91.90
2019-04-22T21:42:54.849Z,91.70
2019-04-22T21:45:20.309Z,91.80
2019-04-22T21:48:08.699Z,91.90
2019-04-22T21:50:54.289Z,91.90
2019-04-22T21:53:19.747Z,91.90
2019-04-22T21:55:50.847Z,91.80
2019-04-22T21:58:31.546Z,91.70
2019-04-22T22:01:29.266Z,91.90
2019-04-22T22:04:00.294Z,92.00
2019-04-22T22:06:25.876Z,92.10
2019-04-22T22:09:07.189Z,92.00
2019-04-22T22:11:45.976Z,91.90
2019-04-22T22:14:22.834Z,92.00
2019-04-22T22:16:50.648Z,92.00
2019-04-22T22:19:28.371Z,92.20
2019-04-22T22:22:15.198Z,92.30
2019-04-22T22:24:43.948Z,92.70
2019-04-22T22:27:20.490Z,92.80
2019-04-22T22:30:07.877Z,92.40
2019-04-22T22:32:33.780Z,92.70
2019-04-22T22:35:06.891Z,92.70
2019-04-22T22:37:28.316Z,92.70
2019-04-22T22:40:06.612Z,92.70
2019-04-22T22:42:38.167Z,92.60
2019-04-22T22:45:15.469Z,92.60
2019-04-22T22:48:12.197Z,92.60
2019-04-22T22:50:38.149Z,92.50
2019-04-22T22:53:21.919Z,92.50
2019-04-22T22:55:46.288Z,92.50
2019-04-22T22:58:25.914Z,92.60
2019-04-22T23:00:53.607Z,92.20
2019-04-22T23:06:12.772Z,91.80
2019-04-22T23:08:47.389Z,91.80
2019-04-22T23:11:20.578Z,91.70
2019-04-22T23:13:57.479Z,91.20
2019-04-22T23:16:18.234Z,90.80
2019-04-22T23:19:02.075Z,90.80
2019-04-22T23:21:41.725Z,90.80
2019-04-22T23:24:44.009Z,90.80
2019-04-22T23:27:26.229Z,90.90
2019-04-22T23:30:09.446Z,90.90
2019-04-22T23:32:43.514Z,90.80
2019-04-22T23:35:42.403Z,90.70
2019-04-22T23:38:20.726Z,90.70
2019-04-22T23:40:58.637Z,90.80
2019-04-22T23:43:34.203Z,90.50
2019-04-22T23:46:05.696Z,90.80
2019-04-22T23:48:39.083Z,90.80
2019-04-22T23:51:23.164Z,90.80
2019-04-22T23:54:09.088Z,90.80
2019-04-22T23:56:29.321Z,90.80
2019-04-22T23:59:19.728Z,90.60
